Fairplay, Maryland
Current Conditions -  °F | °C
As of 3:53 PM on Saturday 25 Oct 2014 (Local Time) from KHGR Reporting Station
Clear Clear  
Wind Chill: 22°   Ceiling: Unl
Heat Index: 22°   Visibility: 10mi
Dew Point:   Wind: 10mph
Humidity: 34%   Direction: 230°SW
Pressure: 29.75"   Gusts: NA
Location:  39.54°N, 77.75°W
Report Text: KHGR 251953Z AUTO 23009KT 10SM CLR 22/06 A2975 RMK AO2 SLP083 T02220056
Loading
Personal Weather Stations






























Interactive Weather Map
Tropical Storm Tracking
New forecast layout! Learn more

10-Day Weather Forecast

Advertisements
Track Severe Weather on mobile